sensor_id;sensor_type;location;lat;lon;timestamp;pressure;altitude;pressure_sealevel;temperature;humidity
45763;BME280;37512;52.408;13.356;2023-04-24T00:02:29;99805.31;;;10.86;100.00
45763;BME280;37512;52.408;13.356;2023-04-24T00:06:31;99790.72;;;11.04;100.00
45763;BME280;37512;52.408;13.356;2023-04-24T00:10:35;99796.19;;;10.89;100.00
45763;BME280;37512;52.408;13.356;2023-04-24T00:14:37;99784.72;;;10.91;100.00
45763;BME280;37512;52.408;13.356;2023-04-24T00:18:39;99787.50;;;10.91;100.00
45763;BME280;37512;52.408;13.356;2023-04-24T00:22:41;99778.69;;;10.75;100.00
45763;BME280;37512;52.408;13.356;2023-04-24T00:26:42;99770.84;;;10.95;100.00
45763;BME280;37512;52.408;13.356;2023-04-24T00:30:44;99765.16;;;10.66;100.00
45763;BME280;37512;52.408;13.356;2023-04-24T00:34:45;99757.22;;;10.64;100.00
45763;BME280;37512;52.408;13.356;2023-04-24T00:38:47;99745.38;;;10.78;100.00
45763;BME280;37512;52.408;13.356;2023-04-24T00:42:48;99739.84;;;10.78;100.00
45763;BME280;37512;52.408;13.356;2023-04-24T00:46:50;99743.06;;;10.95;100.00
45763;BME280;37512;52.408;13.356;2023-04-24T00:50:55;99735.78;;;10.58;100.00
45763;BME280;37512;52.408;13.356;2023-04-24T00:54:57;99742.53;;;10.60;100.00
45763;BME280;37512;52.408;13.356;2023-04-24T00:58:59;99751.66;;;10.57;100.00
45763;BME280;37512;52.408;13.356;2023-04-24T01:03:04;99745.44;;;10.89;100.00
45763;BME280;37512;52.408;13.356;2023-04-24T01:07:06;99739.88;;;10.89;100.00
45763;BME280;37512;52.408;13.356;2023-04-24T01:11:11;99743.91;;;11.02;100.00
45763;BME280;37512;52.408;13.356;2023-04-24T01:15:13;99747.91;;;11.12;100.00
45763;BME280;37512;52.408;13.356;2023-04-24T01:19:15;99745.53;;;11.18;100.00
45763;BME280;37512;52.408;13.356;2023-04-24T01:23:17;99740.00;;;11.18;100.00
45763;BME280;37512;52.408;13.356;2023-04-24T01:27:19;99732.44;;;11.18;100.00
45763;BME280;37512;52.408;13.356;2023-04-24T01:31:21;99733.22;;;11.12;100.00
45763;BME280;37512;52.408;13.356;2023-04-24T01:35:22;99728.03;;;11.03;100.00
45763;BME280;37512;52.408;13.356;2023-04-24T01:39:24;99731.25;;;11.08;100.00
45763;BME280;37512;52.408;13.356;2023-04-24T01:43:27;99721.34;;;11.22;100.00
45763;BME280;37512;52.408;13.356;2023-04-24T01:47:29;99718.97;;;11.24;100.00
45763;BME280;37512;52.408;13.356;2023-04-24T01:51:31;99710.63;;;11.20;100.00
45763;BME280;37512;52.408;13.356;2023-04-24T01:55:33;99711.44;;;11.32;100.00
45763;BME280;37512;52.408;13.356;2023-04-24T01:59:34;99704.66;;;11.11;100.00
45763;BME280;37512;52.408;13.356;2023-04-24T02:03:37;99704.28;;;11.23;100.00
45763;BME280;37512;52.408;13.356;2023-04-24T02:07:39;99704.25;;;11.20;100.00
45763;BME280;37512;52.408;13.356;2023-04-24T02:11:41;99691.19;;;11.17;100.00
45763;BME280;37512;52.408;13.356;2023-04-24T02:15:42;99693.97;;;11.13;100.00
45763;BME280;37512;52.408;13.356;2023-04-24T02:19:44;99686.84;;;11.23;100.00
45763;BME280;37512;52.408;13.356;2023-04-24T02:23:45;99693.97;;;11.24;100.00
45763;BME280;37512;52.408;13.356;2023-04-24T02:27:47;99694.34;;;11.15;100.00
45763;BME280;37512;52.408;13.356;2023-04-24T02:31:48;99700.97;;;10.78;100.00
45763;BME280;37512;52.408;13.356;2023-04-24T02:35:50;99704.66;;;11.07;100.00
45763;BME280;37512;52.408;13.356;2023-04-24T02:39:51;99705.84;;;11.06;100.00
45763;BME280;37512;52.408;13.356;2023-04-24T02:43:53;99702.59;;;10.83;100.00
45763;BME280;37512;52.408;13.356;2023-04-24T02:47:54;99704.97;;;10.77;100.00
45763;BME280;37512;52.408;13.356;2023-04-24T02:51:56;99689.13;;;10.92;100.00
45763;BME280;37512;52.408;13.356;2023-04-24T02:55:57;99694.72;;;11.03;100.00
45763;BME280;37512;52.408;13.356;2023-04-24T02:59:59;99675.69;;;11.05;100.00
45763;BME280;37512;52.408;13.356;2023-04-24T03:04:01;99683.22;;;11.08;100.00
45763;BME280;37512;52.408;13.356;2023-04-24T03:08:03;99689.59;;;11.23;100.00
45763;BME280;37512;52.408;13.356;2023-04-24T03:12:05;99692.78;;;11.18;100.00
45763;BME280;37512;52.408;13.356;2023-04-24T03:16:06;99711.41;;;11.06;100.00
45763;BME280;37512;52.408;13.356;2023-04-24T03:20:08;99702.66;;;11.08;100.00
45763;BME280;37512;52.408;13.356;2023-04-24T03:24:10;99701.91;;;11.25;100.00
45763;BME280;37512;52.408;13.356;2023-04-24T03:28:11;99691.59;;;11.33;100.00
45763;BME280;37512;52.408;13.356;2023-04-24T03:32:13;99703.47;;;11.26;100.00
45763;BME280;37512;52.408;13.356;2023-04-24T03:36:14;99703.50;;;11.23;100.00
45763;BME280;37512;52.408;13.356;2023-04-24T03:40:16;99712.56;;;10.98;100.00
45763;BME280;37512;52.408;13.356;2023-04-24T03:44:17;99703.41;;;10.94;100.00
45763;BME280;37512;52.408;13.356;2023-04-24T03:48:19;99700.28;;;11.03;100.00
45763;BME280;37512;52.408;13.356;2023-04-24T03:52:20;99700.28;;;11.17;100.00
45763;BME280;37512;52.408;13.356;2023-04-24T03:56:22;99705.06;;;11.17;100.00
45763;BME280;37512;52.408;13.356;2023-04-24T04:00:23;99703.84;;;11.07;100.00
45763;BME280;37512;52.408;13.356;2023-04-24T04:04:25;99704.25;;;11.13;100.00
45763;BME280;37512;52.408;13.356;2023-04-24T04:08:26;99690.78;;;11.18;100.00
45763;BME280;37512;52.408;13.356;2023-04-24T04:12:28;99697.53;;;11.17;100.00
45763;BME280;37512;52.408;13.356;2023-04-24T04:16:29;99692.38;;;11.23;100.00
45763;BME280;37512;52.408;13.356;2023-04-24T04:20:31;99690.38;;;11.13;100.00
45763;BME280;37512;52.408;13.356;2023-04-24T04:24:32;99694.75;;;11.21;100.00
45763;BME280;37512;52.408;13.356;2023-04-24T04:28:34;99697.13;;;11.26;100.00
45763;BME280;37512;52.408;13.356;2023-04-24T04:32:36;99690.03;;;11.43;100.00
45763;BME280;37512;52.408;13.356;2023-04-24T04:36:38;99715.72;;;10.93;100.00
45763;BME280;37512;52.408;13.356;2023-04-24T04:40:41;99708.56;;;10.92;100.00
45763;BME280;37512;52.408;13.356;2023-04-24T04:44:43;99713.31;;;10.84;100.00
45763;BME280;37512;52.408;13.356;2023-04-24T04:48:46;99720.06;;;10.94;100.00
45763;BME280;37512;52.408;13.356;2023-04-24T04:52:47;99724.88;;;10.97;100.00
45763;BME280;37512;52.408;13.356;2023-04-24T04:56:51;99720.88;;;10.98;100.00
45763;BME280;37512;52.408;13.356;2023-04-24T05:00:53;99722.06;;;11.01;100.00
45763;BME280;37512;52.408;13.356;2023-04-24T05:04:54;99719.72;;;10.99;100.00
45763;BME280;37512;52.408;13.356;2023-04-24T05:08:56;99735.56;;;11.06;100.00
45763;BME280;37512;52.408;13.356;2023-04-24T05:12:58;99731.25;;;11.26;100.00
45763;BME280;37512;52.408;13.356;2023-04-24T05:17:00;99726.09;;;11.21;100.00
45763;BME280;37512;52.408;13.356;2023-04-24T05:21:02;99722.94;;;11.23;100.00
45763;BME280;37512;52.408;13.356;2023-04-24T05:25:04;99736.00;;;11.19;100.00
45763;BME280;37512;52.408;13.356;2023-04-24T05:29:06;99732.88;;;11.42;100.00
45763;BME280;37512;52.408;13.356;2023-04-24T05:33:08;99729.31;;;11.27;100.00
45763;BME280;37512;52.408;13.356;2023-04-24T05:37:11;99724.16;;;11.36;100.00
45763;BME280;37512;52.408;13.356;2023-04-24T05:41:12;99729.31;;;11.41;100.00
45763;BME280;37512;52.408;13.356;2023-04-24T05:45:14;99727.72;;;11.37;100.00
45763;BME280;37512;52.408;13.356;2023-04-24T05:49:17;99737.66;;;11.45;100.00
45763;BME280;37512;52.408;13.356;2023-04-24T05:53:19;99742.41;;;11.51;100.00
45763;BME280;37512;52.408;13.356;2023-04-24T05:57:20;99739.28;;;11.64;100.00
45763;BME280;37512;52.408;13.356;2023-04-24T06:01:22;99740.03;;;11.54;100.00
45763;BME280;37512;52.408;13.356;2023-04-24T06:05:24;99743.63;;;11.68;100.00
45763;BME280;37512;52.408;13.356;2023-04-24T06:09:26;99747.66;;;12.00;100.00
45763;BME280;37512;52.408;13.356;2023-04-24T06:13:27;99758.34;;;11.87;100.00
45763;BME280;37512;52.408;13.356;2023-04-24T06:17:30;99755.16;;;12.06;100.00
45763;BME280;37512;52.408;13.356;2023-04-24T06:21:32;99756.75;;;12.14;100.00
45763;BME280;37512;52.408;13.356;2023-04-24T06:25:34;99755.56;;;12.16;100.00
45763;BME280;37512;52.408;13.356;2023-04-24T06:29:36;99755.97;;;12.21;100.00
45763;BME280;37512;52.408;13.356;2023-04-24T06:33:37;99763.88;;;12.41;100.00
45763;BME280;37512;52.408;13.356;2023-04-24T06:37:41;99765.44;;;12.49;100.00
45763;BME280;37512;52.408;13.356;2023-04-24T06:41:42;99767.03;;;12.57;100.00
45763;BME280;37512;52.408;13.356;2023-04-24T06:45:44;99755.91;;;12.50;100.00
45763;BME280;37512;52.408;13.356;2023-04-24T06:49:46;99756.63;;;12.75;100.00
45763;BME280;37512;52.408;13.356;2023-04-24T06:53:47;99757.66;;;13.07;100.00
45763;BME280;37512;52.408;13.356;2023-04-24T06:57:49;99754.94;;;13.00;100.00
45763;BME280;37512;52.408;13.356;2023-04-24T07:01:51;99745.78;;;12.99;100.00
45763;BME280;37512;52.408;13.356;2023-04-24T07:05:55;99749.31;;;13.10;100.00
45763;BME280;37512;52.408;13.356;2023-04-24T07:09:57;99753.75;;;12.97;100.00
45763;BME280;37512;52.408;13.356;2023-04-24T07:13:59;99748.97;;;12.97;100.00
45763;BME280;37512;52.408;13.356;2023-04-24T07:18:01;99751.25;;;13.21;100.00
45763;BME280;37512;52.408;13.356;2023-04-24T07:22:06;99748.84;;;13.23;100.00
45763;BME280;37512;52.408;13.356;2023-04-24T07:26:07;99757.94;;;13.37;100.00
45763;BME280;37512;52.408;13.356;2023-04-24T07:30:09;99763.47;;;13.45;100.00
45763;BME280;37512;52.408;13.356;2023-04-24T07:34:11;99763.41;;;13.55;100.00
45763;BME280;37512;52.408;13.356;2023-04-24T07:38:12;99764.13;;;13.67;100.00
45763;BME280;37512;52.408;13.356;2023-04-24T07:42:14;99754.59;;;13.60;100.00
45763;BME280;37512;52.408;13.356;2023-04-24T07:46:15;99751.63;;;13.86;100.00
45763;BME280;37512;52.408;13.356;2023-04-24T07:50:17;99759.59;;;13.87;100.00
45763;BME280;37512;52.408;13.356;2023-04-24T07:54:19;99756.38;;;14.34;100.00
45763;BME280;37512;52.408;13.356;2023-04-24T07:58:20;99747.84;;;14.10;100.00
45763;BME280;37512;52.408;13.356;2023-04-24T08:02:22;99752.56;;;14.17;100.00
45763;BME280;37512;52.408;13.356;2023-04-24T08:06:28;99745.50;;;14.43;98.51
45763;BME280;37512;52.408;13.356;2023-04-24T08:10:31;99751.53;;;14.79;100.00
45763;BME280;37512;52.408;13.356;2023-04-24T08:14:33;99754.38;;;14.76;100.00
45763;BME280;37512;52.408;13.356;2023-04-24T08:18:34;99756.78;;;14.74;99.72
45763;BME280;37512;52.408;13.356;2023-04-24T08:22:37;99752.75;;;14.78;98.18
45763;BME280;37512;52.408;13.356;2023-04-24T08:26:39;99747.81;;;15.20;92.56
45763;BME280;37512;52.408;13.356;2023-04-24T08:30:41;99753.88;;;15.15;97.00
45763;BME280;37512;52.408;13.356;2023-04-24T08:34:42;99740.94;;;14.63;99.38
45763;BME280;37512;52.408;13.356;2023-04-24T08:38:44;99745.19;;;14.37;100.00
45763;BME280;37512;52.408;13.356;2023-04-24T08:42:47;99756.41;;;15.06;100.00
45763;BME280;37512;52.408;13.356;2023-04-24T08:46:53;99751.00;;;15.50;100.00
45763;BME280;37512;52.408;13.356;2023-04-24T08:50:56;99763.19;;;15.63;100.00
45763;BME280;37512;52.408;13.356;2023-04-24T08:55:00;99766.91;;;15.25;100.00
45763;BME280;37512;52.408;13.356;2023-04-24T08:59:01;99761.19;;;15.05;100.00
45763;BME280;37512;52.408;13.356;2023-04-24T09:03:04;99752.47;;;14.69;100.00
45763;BME280;37512;52.408;13.356;2023-04-24T09:07:08;99758.56;;;14.57;100.00
45763;BME280;37512;52.408;13.356;2023-04-24T09:11:11;99760.03;;;14.69;100.00
45763;BME280;37512;52.408;13.356;2023-04-24T09:15:13;99761.94;;;14.75;100.00
45763;BME280;37512;52.408;13.356;2023-04-24T09:19:15;99762.16;;;14.54;100.00
45763;BME280;37512;52.408;13.356;2023-04-24T09:23:19;99760.34;;;15.09;100.00
45763;BME280;37512;52.408;13.356;2023-04-24T09:27:23;99766.06;;;14.98;100.00
45763;BME280;37512;52.408;13.356;2023-04-24T09:31:27;99770.03;;;15.00;100.00
45763;BME280;37512;52.408;13.356;2023-04-24T09:35:29;99766.16;;;14.91;100.00
45763;BME280;37512;52.408;13.356;2023-04-24T09:39:30;99770.88;;;14.97;100.00
45763;BME280;37512;52.408;13.356;2023-04-24T09:43:32;99776.44;;;14.97;100.00
45763;BME280;37512;52.408;13.356;2023-04-24T09:47:41;99774.50;;;14.60;100.00
45763;BME280;37512;52.408;13.356;2023-04-24T09:51:43;99766.91;;;14.95;100.00
45763;BME280;37512;52.408;13.356;2023-04-24T09:55:45;99774.72;;;15.07;100.00
45763;BME280;37512;52.408;13.356;2023-04-24T09:59:47;99770.44;;;15.30;99.67
45763;BME280;37512;52.408;13.356;2023-04-24T10:03:49;99763.38;;;15.48;96.98
45763;BME280;37512;52.408;13.356;2023-04-24T10:07:51;99758.56;;;15.80;90.31
45763;BME280;37512;52.408;13.356;2023-04-24T10:11:54;99770.47;;;15.57;91.26
45763;BME280;37512;52.408;13.356;2023-04-24T10:15:56;99761.00;;;16.01;83.42
45763;BME280;37512;52.408;13.356;2023-04-24T10:20:01;99762.56;;;15.79;84.91
45763;BME280;37512;52.408;13.356;2023-04-24T10:24:05;99771.72;;;15.83;85.03
45763;BME280;37512;52.408;13.356;2023-04-24T10:28:09;99761.31;;;14.95;93.00
45763;BME280;37512;52.408;13.356;2023-04-24T10:32:11;99753.78;;;15.22;90.28
45763;BME280;37512;52.408;13.356;2023-04-24T10:36:14;99763.91;;;14.78;95.65
45763;BME280;37512;52.408;13.356;2023-04-24T10:40:18;99768.94;;;14.53;100.00
45763;BME280;37512;52.408;13.356;2023-04-24T10:44:21;99758.28;;;14.82;100.00
45763;BME280;37512;52.408;13.356;2023-04-24T10:48:26;99743.81;;;14.91;98.81
45763;BME280;37512;52.408;13.356;2023-04-24T10:52:44;99731.88;;;14.87;99.36
45763;BME280;37512;52.408;13.356;2023-04-24T10:56:46;99735.22;;;15.36;93.70
45763;BME280;37512;52.408;13.356;2023-04-24T11:00:59;99739.06;;;16.43;89.44
45763;BME280;37512;52.408;13.356;2023-04-24T11:05:03;99756.22;;;16.89;86.06
45763;BME280;37512;52.408;13.356;2023-04-24T11:09:07;99753.22;;;16.56;82.86
45763;BME280;37512;52.408;13.356;2023-04-24T11:13:09;99749.66;;;15.85;90.01
45763;BME280;37512;52.408;13.356;2023-04-24T11:17:28;99755.72;;;15.83;95.87
45763;BME280;37512;52.408;13.356;2023-04-24T11:25:44;99792.50;;;12.20;100.00
45763;BME280;37512;52.408;13.356;2023-04-24T11:34:09;99789.03;;;13.29;100.00
45763;BME280;37512;52.408;13.356;2023-04-24T11:38:11;99780.09;;;13.59;100.00
45763;BME280;37512;52.408;13.356;2023-04-24T11:42:24;99751.00;;;14.12;100.00
45763;BME280;37512;52.408;13.356;2023-04-24T11:46:28;99748.09;;;14.23;100.00
45763;BME280;37512;52.408;13.356;2023-04-24T11:50:31;99753.50;;;15.13;100.00
45763;BME280;37512;52.408;13.356;2023-04-24T11:54:32;99755.06;;;15.14;100.00
45763;BME280;37512;52.408;13.356;2023-04-24T11:58:35;99753.94;;;15.66;100.00
45763;BME280;37512;52.408;13.356;2023-04-24T12:02:37;99745.78;;;16.02;100.00
45763;BME280;37512;52.408;13.356;2023-04-24T12:06:58;99777.00;;;16.68;100.00
45763;BME280;37512;52.408;13.356;2023-04-24T12:11:06;99747.38;;;16.27;100.00
45763;BME280;37512;52.408;13.356;2023-04-24T12:15:09;99751.34;;;16.49;100.00
45763;BME280;37512;52.408;13.356;2023-04-24T12:19:10;99745.31;;;16.51;99.10
45763;BME280;37512;52.408;13.356;2023-04-24T12:23:12;99748.97;;;15.81;100.00
45763;BME280;37512;52.408;13.356;2023-04-24T12:27:19;99754.72;;;15.66;71.80
45763;BME280;37512;52.408;13.356;2023-04-24T12:31:21;99742.72;;;15.69;67.49
45763;BME280;37512;52.408;13.356;2023-04-24T12:35:25;99734.72;;;15.72;68.21
45763;BME280;37512;52.408;13.356;2023-04-24T12:39:28;99741.72;;;15.56;60.17
45763;BME280;37512;52.408;13.356;2023-04-24T12:43:29;99745.50;;;15.42;62.13
45763;BME280;37512;52.408;13.356;2023-04-24T12:47:32;99737.28;;;15.59;62.98
45763;BME280;37512;52.408;13.356;2023-04-24T12:51:34;99747.09;;;16.41;60.03
45763;BME280;37512;52.408;13.356;2023-04-24T12:55:37;99740.56;;;16.48;53.79
45763;BME280;37512;52.408;13.356;2023-04-24T12:59:38;99734.47;;;16.73;50.08
45763;BME280;37512;52.408;13.356;2023-04-24T13:03:40;99745.34;;;16.27;53.36
45763;BME280;37512;52.408;13.356;2023-04-24T13:07:42;99731.75;;;16.06;53.63
45763;BME280;37512;52.408;13.356;2023-04-24T13:11:44;99748.91;;;16.08;52.91
45763;BME280;37512;52.408;13.356;2023-04-24T13:15:45;99747.00;;;16.25;52.40
45763;BME280;37512;52.408;13.356;2023-04-24T13:19:50;99743.91;;;15.68;50.03
45763;BME280;37512;52.408;13.356;2023-04-24T13:23:52;99720.75;;;17.35;43.92
45763;BME280;37512;52.408;13.356;2023-04-24T13:27:53;99730.81;;;17.16;44.20
45763;BME280;37512;52.408;13.356;2023-04-24T13:31:55;99743.53;;;17.01;44.29
45763;BME280;37512;52.408;13.356;2023-04-24T13:35:57;99743.63;;;16.97;44.80
45763;BME280;37512;52.408;13.356;2023-04-24T13:39:58;99722.88;;;17.84;44.25
45763;BME280;37512;52.408;13.356;2023-04-24T13:44:00;99727.19;;;18.17;45.16
45763;BME280;37512;52.408;13.356;2023-04-24T13:48:02;99710.75;;;17.18;46.64
45763;BME280;37512;52.408;13.356;2023-04-24T13:52:04;99731.28;;;16.95;47.10
45763;BME280;37512;52.408;13.356;2023-04-24T13:56:06;99729.91;;;16.63;46.72
45763;BME280;37512;52.408;13.356;2023-04-24T14:00:08;99714.84;;;16.53;47.89
45763;BME280;37512;52.408;13.356;2023-04-24T14:04:12;99715.13;;;17.19;45.43
45763;BME280;37512;52.408;13.356;2023-04-24T14:08:14;99733.91;;;16.62;47.86
45763;BME280;37512;52.408;13.356;2023-04-24T14:12:16;99719.47;;;17.40;43.54
45763;BME280;37512;52.408;13.356;2023-04-24T14:16:20;99722.03;;;17.14;43.78
45763;BME280;37512;52.408;13.356;2023-04-24T14:20:22;99718.91;;;16.52;45.20
45763;BME280;37512;52.408;13.356;2023-04-24T14:24:24;99721.53;;;17.19;44.48
45763;BME280;37512;52.408;13.356;2023-04-24T14:28:25;99716.31;;;17.01;43.64
45763;BME280;37512;52.408;13.356;2023-04-24T14:32:27;99718.94;;;18.27;47.82
45763;BME280;37512;52.408;13.356;2023-04-24T14:36:29;99730.78;;;18.64;44.09
45763;BME280;37512;52.408;13.356;2023-04-24T14:40:32;99739.91;;;18.22;42.64
45763;BME280;37512;52.408;13.356;2023-04-24T14:44:54;99732.03;;;17.15;44.13
45763;BME280;37512;52.408;13.356;2023-04-24T14:48:58;99752.66;;;16.45;45.25
45763;BME280;37512;52.408;13.356;2023-04-24T14:53:00;99740.47;;;15.57;47.85
45763;BME280;37512;52.408;13.356;2023-04-24T14:57:03;99741.81;;;15.22;50.03
45763;BME280;37512;52.408;13.356;2023-04-24T15:01:04;99752.00;;;15.36;50.06
45763;BME280;37512;52.408;13.356;2023-04-24T15:05:06;99758.00;;;15.61;51.59
45763;BME280;37512;52.408;13.356;2023-04-24T15:09:09;99743.84;;;15.99;48.67
45763;BME280;37512;52.408;13.356;2023-04-24T15:13:10;99753.31;;;16.05;46.25
45763;BME280;37512;52.408;13.356;2023-04-24T15:17:12;99753.81;;;16.00;46.96
45763;BME280;37512;52.408;13.356;2023-04-24T15:21:13;99766.41;;;15.61;48.36
45763;BME280;37512;52.408;13.356;2023-04-24T15:25:15;99782.16;;;14.87;50.18
45763;BME280;37512;52.408;13.356;2023-04-24T15:29:17;99766.41;;;14.69;51.95
45763;BME280;37512;52.408;13.356;2023-04-24T15:33:18;99755.03;;;14.87;53.00
45763;BME280;37512;52.408;13.356;2023-04-24T15:37:20;99770.66;;;14.81;54.86
45763;BME280;37512;52.408;13.356;2023-04-24T15:41:22;99765.75;;;14.58;55.16
45763;BME280;37512;52.408;13.356;2023-04-24T15:45:24;99766.94;;;14.57;54.42
45763;BME280;37512;52.408;13.356;2023-04-24T15:49:26;99763.03;;;14.85;53.08
45763;BME280;37512;52.408;13.356;2023-04-24T15:53:27;99772.53;;;14.53;53.09
45763;BME280;37512;52.408;13.356;2023-04-24T15:57:28;99769.69;;;14.60;53.13
45763;BME280;37512;52.408;13.356;2023-04-24T16:01:30;99769.00;;;14.49;52.54
45763;BME280;37512;52.408;13.356;2023-04-24T16:05:33;99769.66;;;14.64;55.79
45763;BME280;37512;52.408;13.356;2023-04-24T16:09:34;99788.31;;;14.29;55.10
45763;BME280;37512;52.408;13.356;2023-04-24T16:13:36;99780.94;;;14.12;53.76
45763;BME280;37512;52.408;13.356;2023-04-24T16:17:37;99782.03;;;14.18;56.23
45763;BME280;37512;52.408;13.356;2023-04-24T16:21:39;99788.13;;;14.06;57.08
45763;BME280;37512;52.408;13.356;2023-04-24T16:25:41;99818.13;;;13.94;57.50
45763;BME280;37512;52.408;13.356;2023-04-24T16:29:43;99781.66;;;14.16;59.08
45763;BME280;37512;52.408;13.356;2023-04-24T16:33:44;99785.41;;;13.98;60.94
45763;BME280;37512;52.408;13.356;2023-04-24T16:37:46;99798.16;;;13.99;62.55
45763;BME280;37512;52.408;13.356;2023-04-24T16:41:47;99805.72;;;13.99;65.08
45763;BME280;37512;52.408;13.356;2023-04-24T16:45:50;99834.50;;;13.04;73.62
45763;BME280;37512;52.408;13.356;2023-04-24T16:49:52;99848.91;;;12.77;81.25
45763;BME280;37512;52.408;13.356;2023-04-24T16:53:53;99848.13;;;12.66;85.15
45763;BME280;37512;52.408;13.356;2023-04-24T16:57:55;99842.97;;;12.54;87.25
45763;BME280;37512;52.408;13.356;2023-04-24T17:01:56;99856.50;;;12.38;89.94
45763;BME280;37512;52.408;13.356;2023-04-24T17:05:58;99846.19;;;12.34;91.95
45763;BME280;37512;52.408;13.356;2023-04-24T17:09:59;99874.41;;;12.54;92.66
45763;BME280;37512;52.408;13.356;2023-04-24T17:14:01;99875.16;;;11.98;99.27
45763;BME280;37512;52.408;13.356;2023-04-24T17:18:02;99876.34;;;11.97;100.00
45763;BME280;37512;52.408;13.356;2023-04-24T17:22:05;99891.78;;;11.83;100.00
45763;BME280;37512;52.408;13.356;2023-04-24T17:26:07;99900.53;;;11.85;100.00
45763;BME280;37512;52.408;13.356;2023-04-24T17:30:11;99889.03;;;11.90;98.82
45763;BME280;37512;52.408;13.356;2023-04-24T17:34:12;99902.97;;;12.87;91.17
45763;BME280;37512;52.408;13.356;2023-04-24T17:38:14;99912.53;;;12.93;92.40
45763;BME280;37512;52.408;13.356;2023-04-24T17:42:16;99920.84;;;12.04;97.84
45763;BME280;37512;52.408;13.356;2023-04-24T17:46:17;99940.88;;;11.47;99.73
45763;BME280;37512;52.408;13.356;2023-04-24T17:50:19;99931.34;;;11.44;99.10
45763;BME280;37512;52.408;13.356;2023-04-24T17:54:21;99924.06;;;11.15;97.45
45763;BME280;37512;52.408;13.356;2023-04-24T17:58:23;99959.69;;;11.05;98.79
45763;BME280;37512;52.408;13.356;2023-04-24T18:02:24;99959.94;;;10.79;96.60
45763;BME280;37512;52.408;13.356;2023-04-24T18:06:26;99963.38;;;10.65;99.01
45763;BME280;37512;52.408;13.356;2023-04-24T18:10:30;99961.88;;;10.78;100.00
45763;BME280;37512;52.408;13.356;2023-04-24T18:14:36;99976.81;;;10.59;100.00
45763;BME280;37512;52.408;13.356;2023-04-24T18:18:37;99985.59;;;10.68;100.00
45763;BME280;37512;52.408;13.356;2023-04-24T18:22:39;100007.53;;;10.40;100.00
45763;BME280;37512;52.408;13.356;2023-04-24T18:26:41;100005.28;;;10.49;100.00
45763;BME280;37512;52.408;13.356;2023-04-24T18:30:42;100008.97;;;10.26;100.00
45763;BME280;37512;52.408;13.356;2023-04-24T18:34:44;100022.09;;;9.96;100.00
45763;BME280;37512;52.408;13.356;2023-04-24T18:38:46;100025.69;;;10.00;100.00
45763;BME280;37512;52.408;13.356;2023-04-24T18:42:48;100034.50;;;9.75;100.00
45763;BME280;37512;52.408;13.356;2023-04-24T18:46:50;100058.03;;;9.89;100.00
45763;BME280;37512;52.408;13.356;2023-04-24T18:50:51;100059.16;;;9.54;100.00
45763;BME280;37512;52.408;13.356;2023-04-24T18:54:53;100064.34;;;9.86;100.00
45763;BME280;37512;52.408;13.356;2023-04-24T18:58:55;100070.94;;;9.47;100.00
45763;BME280;37512;52.408;13.356;2023-04-24T19:02:56;100069.59;;;9.37;100.00
45763;BME280;37512;52.408;13.356;2023-04-24T19:06:58;100075.75;;;9.27;100.00
45763;BME280;37512;52.408;13.356;2023-04-24T19:10:59;100080.44;;;9.23;100.00
45763;BME280;37512;52.408;13.356;2023-04-24T19:15:01;100087.38;;;9.36;100.00
45763;BME280;37512;52.408;13.356;2023-04-24T19:19:02;100088.59;;;9.12;100.00
45763;BME280;37512;52.408;13.356;2023-04-24T19:23:06;100098.28;;;9.03;100.00
45763;BME280;37512;52.408;13.356;2023-04-24T19:27:07;100091.38;;;9.39;100.00
45763;BME280;37512;52.408;13.356;2023-04-24T19:31:09;100093.25;;;9.08;100.00
45763;BME280;37512;52.408;13.356;2023-04-24T19:35:10;100102.97;;;8.98;100.00
45763;BME280;37512;52.408;13.356;2023-04-24T19:39:12;100101.25;;;9.13;100.00
45763;BME280;37512;52.408;13.356;2023-04-24T19:43:13;100107.03;;;9.05;100.00
45763;BME280;37512;52.408;13.356;2023-04-24T19:47:15;100110.72;;;8.89;100.00
45763;BME280;37512;52.408;13.356;2023-04-24T19:51:17;100101.31;;;8.94;100.00
45763;BME280;37512;52.408;13.356;2023-04-24T19:55:18;100098.06;;;9.11;100.00
45763;BME280;37512;52.408;13.356;2023-04-24T19:59:20;100101.50;;;9.05;100.00
45763;BME280;37512;52.408;13.356;2023-04-24T20:03:21;100092.88;;;8.87;100.00
45763;BME280;37512;52.408;13.356;2023-04-24T20:07:34;100096.94;;;8.70;100.00
45763;BME280;37512;52.408;13.356;2023-04-24T20:11:35;100098.84;;;8.66;100.00
45763;BME280;37512;52.408;13.356;2023-04-24T20:15:37;100092.75;;;8.37;100.00
45763;BME280;37512;52.408;13.356;2023-04-24T20:19:38;100102.75;;;8.42;100.00
45763;BME280;37512;52.408;13.356;2023-04-24T20:23:41;100108.28;;;8.42;100.00
45763;BME280;37512;52.408;13.356;2023-04-24T20:27:42;100112.47;;;8.35;100.00
45763;BME280;37512;52.408;13.356;2023-04-24T20:31:44;100102.50;;;8.31;100.00
45763;BME280;37512;52.408;13.356;2023-04-24T20:35:46;100096.03;;;8.62;100.00
45763;BME280;37512;52.408;13.356;2023-04-24T20:39:47;100094.63;;;8.33;100.00
45763;BME280;37512;52.408;13.356;2023-04-24T20:43:51;100097.09;;;8.38;100.00
45763;BME280;37512;52.408;13.356;2023-04-24T20:47:54;100091.22;;;8.40;100.00
45763;BME280;37512;52.408;13.356;2023-04-24T20:51:56;100095.78;;;7.93;100.00
45763;BME280;37512;52.408;13.356;2023-04-24T20:55:59;100083.56;;;8.13;100.00
45763;BME280;37512;52.408;13.356;2023-04-24T21:00:01;100088.31;;;8.13;100.00
45763;BME280;37512;52.408;13.356;2023-04-24T21:04:06;100092.91;;;8.05;100.00